createdAt,value
2022-08-29T00:00:40.898Z,20.10
2022-08-29T00:03:30.960Z,20.52
2022-08-29T00:06:19.512Z,20.07
2022-08-29T00:09:08.073Z,20.02
2022-08-29T00:11:56.509Z,20.27
2022-08-29T00:14:44.827Z,20.13
2022-08-29T00:17:33.917Z,20.27
2022-08-29T00:20:30.335Z,20.10
2022-08-29T00:23:22.823Z,19.89
2022-08-29T00:26:11.240Z,20.31
2022-08-29T00:28:59.569Z,20.37
2022-08-29T00:31:49.039Z,20.10
2022-08-29T00:34:37.450Z,20.26
2022-08-29T00:37:27.244Z,20.53
2022-08-29T00:40:20.659Z,20.23
2022-08-29T00:43:10.532Z,20.24
2022-08-29T00:46:06.947Z,20.09
2022-08-29T00:48:58.032Z,20.21
2022-08-29T00:51:48.170Z,19.93
2022-08-29T00:54:38.243Z,20.14
2022-08-29T00:57:30.440Z,20.32
2022-08-29T01:00:19.537Z,20.30
2022-08-29T01:03:08.898Z,20.16
2022-08-29T01:05:57.399Z,19.95
2022-08-29T01:08:46.026Z,20.05
2022-08-29T01:11:53.591Z,20.00
2022-08-29T01:14:48.290Z,20.33
2022-08-29T01:17:44.274Z,20.33
2022-08-29T01:20:40.366Z,19.89
2022-08-29T01:23:33.770Z,20.20
2022-08-29T01:26:24.308Z,20.32
2022-08-29T01:29:13.001Z,20.07
2022-08-29T01:32:02.180Z,19.87
2022-08-29T01:34:50.679Z,20.05
2022-08-29T01:37:43.643Z,20.32
2022-08-29T01:40:32.167Z,20.40
2022-08-29T01:43:23.202Z,20.59
2022-08-29T01:46:13.224Z,20.35
2022-08-29T01:49:03.782Z,20.44
2022-08-29T01:51:52.744Z,20.87
2022-08-29T01:54:42.255Z,20.94
2022-08-29T01:57:30.602Z,21.05
2022-08-29T02:00:20.476Z,21.05
2022-08-29T02:03:08.863Z,21.33
2022-08-29T02:05:58.801Z,20.89
2022-08-29T02:08:47.469Z,20.38
2022-08-29T02:11:36.581Z,20.20
2022-08-29T02:14:26.475Z,21.19
2022-08-29T02:17:17.445Z,20.73
2022-08-29T02:20:09.259Z,20.59
2022-08-29T02:22:57.539Z,20.48
2022-08-29T02:25:47.682Z,20.51
2022-08-29T02:28:38.498Z,20.40
2022-08-29T02:31:26.924Z,20.29
2022-08-29T02:34:16.769Z,20.33
2022-08-29T02:37:06.046Z,19.78
2022-08-29T02:39:54.835Z,20.18
2022-08-29T02:42:43.167Z,20.34
2022-08-29T02:45:32.000Z,20.09
2022-08-29T02:48:21.295Z,20.12
2022-08-29T02:51:11.056Z,19.89
2022-08-29T02:54:00.481Z,19.93
2022-08-29T02:56:48.788Z,19.89
2022-08-29T02:59:37.300Z,19.93
2022-08-29T03:02:25.960Z,19.91
2022-08-29T03:05:15.176Z,19.87
2022-08-29T03:08:07.990Z,20.32
2022-08-29T03:10:56.608Z,20.61
2022-08-29T03:13:45.370Z,20.17
2022-08-29T03:16:34.279Z,20.24
2022-08-29T03:19:23.015Z,20.33
2022-08-29T03:22:11.394Z,20.16
2022-08-29T03:25:03.257Z,19.75
2022-08-29T03:27:52.950Z,20.38
2022-08-29T03:30:41.439Z,20.07
2022-08-29T03:33:29.732Z,20.41
2022-08-29T03:36:18.224Z,20.16
2022-08-29T03:39:06.509Z,20.05
2022-08-29T03:41:56.247Z,20.14
2022-08-29T03:44:44.677Z,19.94
2022-08-29T03:47:33.108Z,20.17
2022-08-29T03:50:24.599Z,20.27
2022-08-29T03:53:13.046Z,19.41
2022-08-29T03:56:01.450Z,19.96
2022-08-29T03:58:53.349Z,20.14
2022-08-29T04:01:41.980Z,19.68
2022-08-29T04:04:47.705Z,19.53
2022-08-29T04:07:40.238Z,19.66
2022-08-29T04:10:31.075Z,19.55
2022-08-29T04:13:19.552Z,19.22
2022-08-29T04:16:12.574Z,19.47
2022-08-29T04:19:00.972Z,19.48
2022-08-29T04:21:50.273Z,19.38
2022-08-29T04:24:38.765Z,19.52
2022-08-29T04:27:30.200Z,19.58
2022-08-29T04:30:21.786Z,19.49
2022-08-29T04:33:22.216Z,19.35
2022-08-29T04:36:14.867Z,19.45
2022-08-29T04:39:03.969Z,19.64
2022-08-29T04:41:52.754Z,19.60
2022-08-29T04:44:41.192Z,19.98
2022-08-29T04:47:29.595Z,19.73
2022-08-29T04:50:22.900Z,20.24
2022-08-29T04:53:12.767Z,19.84
2022-08-29T04:56:03.965Z,19.60
2022-08-29T04:58:52.723Z,19.36
2022-08-29T05:01:42.408Z,19.77
2022-08-29T05:04:30.845Z,19.88
2022-08-29T05:07:21.905Z,19.66
2022-08-29T05:10:13.611Z,20.09
2022-08-29T05:13:02.031Z,19.86
2022-08-29T05:15:50.987Z,19.44
2022-08-29T05:18:40.274Z,19.53
2022-08-29T05:21:34.053Z,19.25
2022-08-29T05:24:25.079Z,19.20
2022-08-29T05:27:17.847Z,19.36
2022-08-29T05:30:07.391Z,19.52
2022-08-29T05:32:55.850Z,19.78
2022-08-29T05:35:45.125Z,19.48
2022-08-29T05:38:33.536Z,19.45
2022-08-29T05:41:23.345Z,19.44
2022-08-29T05:44:11.678Z,19.25
2022-08-29T05:47:00.688Z,19.62
2022-08-29T05:49:50.523Z,19.55
2022-08-29T05:52:39.187Z,19.52
2022-08-29T05:55:27.493Z,19.44
2022-08-29T05:58:18.421Z,19.37
2022-08-29T06:01:07.121Z,19.25
2022-08-29T06:03:56.182Z,19.53
2022-08-29T06:06:44.691Z,19.32
2022-08-29T06:09:33.369Z,19.32
2022-08-29T06:12:21.837Z,18.89
2022-08-29T06:15:14.313Z,19.01
2022-08-29T06:18:06.187Z,18.75
2022-08-29T06:20:54.537Z,18.99
2022-08-29T06:23:44.577Z,19.19
2022-08-29T06:26:32.992Z,19.15
2022-08-29T06:29:21.307Z,18.54
2022-08-29T06:32:11.085Z,18.77
2022-08-29T06:34:59.534Z,18.70
2022-08-29T06:37:47.966Z,19.08
2022-08-29T06:40:36.444Z,19.14
2022-08-29T06:43:24.825Z,18.94
2022-08-29T06:46:23.528Z,19.35
2022-08-29T06:49:16.059Z,19.03
2022-08-29T06:52:04.844Z,19.16
2022-08-29T06:54:53.203Z,19.24
2022-08-29T06:57:45.514Z,19.35
2022-08-29T07:00:34.086Z,20.01
2022-08-29T07:03:24.157Z,19.97
2022-08-29T07:06:14.980Z,19.96
2022-08-29T07:09:03.459Z,19.82
2022-08-29T07:11:54.012Z,19.69
2022-08-29T07:14:43.575Z,19.75
2022-08-29T07:17:32.369Z,20.26
2022-08-29T07:20:20.826Z,20.33
2022-08-29T07:23:11.157Z,20.15
2022-08-29T07:26:08.379Z,20.89
2022-08-29T07:28:59.626Z,21.11
2022-08-29T07:31:49.052Z,21.06
2022-08-29T07:34:37.480Z,21.62
2022-08-29T07:37:26.025Z,20.55
2022-08-29T07:40:17.833Z,21.26
2022-08-29T07:43:06.430Z,21.06
2022-08-29T07:45:55.702Z,21.15
2022-08-29T07:48:46.554Z,21.05
2022-08-29T07:51:35.510Z,21.41
2022-08-29T07:54:24.421Z,21.51
2022-08-29T07:57:17.712Z,21.43
2022-08-29T08:00:08.804Z,20.90
2022-08-29T08:03:00.637Z,21.24
2022-08-29T08:05:48.914Z,21.29
2022-08-29T08:08:39.917Z,21.20
2022-08-29T08:11:28.510Z,20.92
2022-08-29T08:14:18.758Z,21.28
2022-08-29T08:17:07.210Z,21.21
2022-08-29T08:19:55.671Z,21.60
2022-08-29T08:22:44.086Z,21.47
2022-08-29T08:25:32.386Z,21.67
2022-08-29T08:28:20.919Z,21.50
2022-08-29T08:31:14.113Z,21.56
2022-08-29T08:34:02.808Z,21.83
2022-08-29T08:36:52.229Z,21.83
2022-08-29T08:39:40.936Z,22.31
2022-08-29T08:42:42.724Z,21.61
2022-08-29T08:45:37.675Z,21.66
2022-08-29T08:48:35.142Z,21.81
2022-08-29T08:51:29.943Z,22.42
2022-08-29T08:54:23.265Z,22.12
2022-08-29T08:57:14.204Z,22.28
2022-08-29T09:00:04.214Z,21.73
2022-08-29T09:03:06.745Z,21.43
2022-08-29T09:06:08.685Z,22.27
2022-08-29T09:09:03.192Z,22.07
2022-08-29T09:12:04.837Z,22.81
2022-08-29T09:15:02.534Z,22.28
2022-08-29T09:17:56.307Z,22.54
2022-08-29T09:20:47.250Z,22.83
2022-08-29T09:23:44.249Z,22.31
2022-08-29T09:26:33.285Z,22.07
2022-08-29T09:29:22.027Z,22.57
2022-08-29T09:32:16.518Z,22.79
2022-08-29T09:35:20.420Z,22.94
2022-08-29T09:38:10.793Z,22.64
2022-08-29T09:41:02.064Z,22.10
2022-08-29T09:43:52.594Z,22.03
2022-08-29T09:46:41.021Z,22.11
2022-08-29T09:49:30.681Z,22.53
2022-08-29T09:52:25.997Z,22.70
2022-08-29T09:55:20.855Z,22.09
2022-08-29T09:58:27.868Z,22.62
2022-08-29T10:01:26.966Z,23.56
2022-08-29T10:04:38.120Z,22.98
2022-08-29T10:07:30.024Z,23.04
2022-08-29T10:10:20.759Z,22.79
2022-08-29T10:13:17.006Z,23.77
2022-08-29T10:16:16.700Z,23.23
2022-08-29T10:19:08.054Z,23.15
2022-08-29T10:22:04.020Z,23.10
2022-08-29T10:24:58.567Z,22.58
2022-08-29T10:27:54.247Z,23.69
2022-08-29T10:30:55.668Z,23.44
2022-08-29T10:34:03.767Z,23.57
2022-08-29T10:36:58.035Z,23.39
2022-08-29T10:39:58.594Z,23.87
2022-08-29T10:42:51.354Z,24.36
2022-08-29T10:45:56.520Z,24.36
2022-08-29T10:48:52.736Z,24.61
2022-08-29T10:51:48.662Z,23.96
2022-08-29T10:54:46.775Z,24.82
2022-08-29T10:57:56.424Z,24.70
2022-08-29T11:00:49.038Z,22.97
2022-08-29T11:03:43.867Z,23.73
2022-08-29T11:09:35.426Z,24.49
2022-08-29T11:12:33.426Z,25.57
2022-08-29T11:15:27.611Z,24.93
2022-08-29T11:18:25.611Z,25.65
2022-08-29T11:21:20.441Z,24.82
2022-08-29T11:24:11.237Z,24.11
2022-08-29T11:27:09.378Z,23.96
2022-08-29T11:30:04.646Z,23.81
2022-08-29T11:33:03.997Z,23.84
2022-08-29T11:36:08.946Z,23.32
2022-08-29T11:39:40.302Z,23.53
2022-08-29T11:42:50.157Z,23.95
2022-08-29T11:45:44.399Z,23.99
2022-08-29T11:48:37.754Z,23.50
2022-08-29T11:51:37.293Z,24.53
2022-08-29T11:54:51.538Z,24.94
2022-08-29T11:57:52.591Z,24.79
2022-08-29T12:00:51.353Z,23.97
2022-08-29T12:03:48.826Z,24.17
2022-08-29T12:07:01.196Z,23.72
2022-08-29T12:09:54.623Z,23.55
2022-08-29T12:12:48.169Z,24.06
2022-08-29T12:15:57.822Z,23.66
2022-08-29T12:18:50.854Z,23.04
2022-08-29T12:21:47.314Z,23.40
2022-08-29T12:24:44.235Z,23.79
2022-08-29T12:28:32.286Z,23.86
2022-08-29T12:32:18.702Z,23.02
2022-08-29T12:35:31.836Z,23.34
2022-08-29T12:38:31.583Z,22.96
2022-08-29T12:41:39.216Z,23.88
2022-08-29T12:44:30.265Z,24.47
2022-08-29T12:47:27.716Z,25.45
2022-08-29T12:50:20.346Z,26.47
2022-08-29T12:53:20.144Z,26.80
2022-08-29T12:56:18.827Z,27.72
2022-08-29T12:59:07.442Z,27.37
2022-08-29T13:01:58.253Z,27.10
2022-08-29T13:04:47.939Z,26.95
2022-08-29T13:07:36.305Z,26.27
2022-08-29T13:10:25.477Z,25.53
2022-08-29T13:13:16.810Z,25.24
2022-08-29T13:16:09.725Z,24.39
2022-08-29T13:19:10.833Z,24.81
2022-08-29T13:22:05.559Z,24.39
2022-08-29T13:25:04.007Z,25.02
2022-08-29T13:28:01.599Z,25.68
2022-08-29T13:31:30.679Z,25.35
2022-08-29T13:34:21.203Z,25.35
2022-08-29T13:37:30.219Z,24.94
2022-08-29T13:40:36.859Z,24.78
2022-08-29T13:43:37.590Z,25.09
2022-08-29T13:46:30.434Z,24.82
2022-08-29T13:49:21.594Z,25.80
2022-08-29T13:52:15.277Z,25.93
2022-08-29T13:55:04.442Z,25.77
2022-08-29T13:57:56.026Z,24.97
2022-08-29T14:00:44.863Z,25.87
2022-08-29T14:03:35.098Z,25.48
2022-08-29T14:06:26.080Z,25.83
2022-08-29T14:09:23.008Z,25.76
2022-08-29T14:12:12.642Z,25.86
2022-08-29T14:15:05.386Z,25.94
2022-08-29T14:17:57.765Z,26.18
2022-08-29T14:20:46.622Z,25.69
2022-08-29T14:23:35.631Z,25.80
2022-08-29T14:26:25.690Z,26.95
2022-08-29T14:29:14.474Z,26.67
2022-08-29T14:32:03.529Z,26.35
2022-08-29T14:34:52.506Z,26.60
2022-08-29T14:37:41.974Z,26.71
2022-08-29T14:40:31.164Z,27.29
2022-08-29T14:43:21.551Z,27.31
2022-08-29T14:46:09.935Z,27.45
2022-08-29T14:48:58.614Z,26.10
2022-08-29T14:51:47.021Z,26.41
2022-08-29T14:54:35.509Z,27.88
2022-08-29T14:57:23.966Z,27.65
2022-08-29T15:00:19.984Z,27.25
2022-08-29T15:03:08.491Z,26.81
2022-08-29T15:05:57.011Z,27.10
2022-08-29T15:08:45.459Z,27.48
2022-08-29T15:11:34.060Z,26.11
2022-08-29T15:14:22.507Z,26.32
2022-08-29T15:17:13.689Z,25.56
2022-08-29T15:23:10.683Z,25.82
2022-08-29T15:26:02.794Z,25.56
2022-08-29T15:28:51.448Z,25.75
2022-08-29T15:31:40.299Z,25.68
2022-08-29T15:34:31.445Z,25.64
2022-08-29T15:37:20.301Z,25.22
2022-08-29T15:40:13.122Z,25.47
2022-08-29T15:43:02.156Z,25.82
2022-08-29T15:45:50.618Z,26.41
2022-08-29T15:48:39.334Z,26.77
2022-08-29T15:51:31.388Z,26.35
2022-08-29T15:54:20.346Z,26.48
2022-08-29T15:57:08.959Z,26.50
2022-08-29T15:59:58.648Z,26.46
2022-08-29T16:02:47.915Z,25.75
2022-08-29T16:05:38.356Z,25.90
2022-08-29T16:08:29.733Z,25.44
2022-08-29T16:11:18.418Z,25.92
2022-08-29T16:14:41.093Z,26.13
2022-08-29T16:17:16.196Z,26.57
2022-08-29T16:20:07.649Z,25.40
2022-08-29T16:22:56.476Z,26.20
2022-08-29T16:25:46.421Z,25.95
2022-08-29T16:28:35.109Z,25.45
2022-08-29T16:31:23.758Z,25.52
2022-08-29T16:34:12.304Z,25.31
2022-08-29T16:37:02.765Z,25.64
2022-08-29T16:39:51.420Z,26.26
2022-08-29T16:42:43.210Z,26.32
2022-08-29T16:45:44.371Z,26.43
2022-08-29T16:48:34.533Z,26.45
2022-08-29T16:51:26.539Z,26.21
2022-08-29T16:54:22.180Z,26.54
2022-08-29T16:57:10.791Z,26.33
2022-08-29T17:00:02.043Z,26.47
2022-08-29T17:02:50.750Z,26.19
2022-08-29T17:05:39.435Z,26.01
2022-08-29T17:08:27.282Z,26.03
2022-08-29T17:11:14.558Z,25.73
2022-08-29T17:14:02.050Z,26.06
2022-08-29T17:16:53.945Z,25.87
2022-08-29T17:19:44.724Z,25.80
2022-08-29T17:22:34.338Z,25.54
2022-08-29T17:25:24.854Z,25.42
2022-08-29T17:28:19.042Z,25.16
2022-08-29T17:31:10.552Z,25.27
2022-08-29T17:34:00.748Z,25.42
2022-08-29T17:36:50.264Z,25.10
2022-08-29T17:39:40.131Z,25.00
2022-08-29T17:42:29.032Z,24.68
2022-08-29T17:45:17.911Z,24.44
2022-08-29T17:48:06.374Z,24.42
2022-08-29T17:50:57.389Z,24.40
2022-08-29T17:53:45.959Z,24.18
2022-08-29T17:56:44.443Z,24.07
2022-08-29T17:59:36.032Z,23.95
2022-08-29T18:02:24.470Z,23.78
2022-08-29T18:05:13.737Z,23.58
2022-08-29T18:08:03.686Z,23.03
2022-08-29T18:10:52.313Z,22.65
2022-08-29T18:13:42.025Z,22.49
2022-08-29T18:16:30.409Z,22.32
2022-08-29T18:19:19.238Z,22.08
2022-08-29T18:22:08.013Z,22.10
2022-08-29T18:24:59.005Z,21.65
2022-08-29T18:27:48.537Z,21.47
2022-08-29T18:30:37.266Z,21.72
2022-08-29T18:33:38.744Z,22.15
2022-08-29T18:36:35.556Z,22.03
2022-08-29T18:39:24.077Z,22.04
2022-08-29T18:42:36.792Z,22.07
2022-08-29T18:45:22.747Z,22.09
2022-08-29T18:48:11.064Z,22.10
2022-08-29T18:51:00.601Z,21.80
2022-08-29T18:53:49.252Z,21.56
2022-08-29T18:56:38.016Z,21.40
2022-08-29T18:59:29.652Z,20.82
2022-08-29T19:02:18.230Z,20.73
2022-08-29T19:05:07.666Z,20.76
2022-08-29T19:07:57.622Z,20.60
2022-08-29T19:10:47.616Z,20.64
2022-08-29T19:13:36.720Z,20.41
2022-08-29T19:16:26.530Z,20.26
2022-08-29T19:19:15.095Z,20.02
2022-08-29T19:22:02.592Z,19.86
2022-08-29T19:24:51.090Z,20.05
2022-08-29T19:27:43.611Z,20.13
2022-08-29T19:30:33.388Z,20.05
2022-08-29T19:33:23.590Z,20.14
2022-08-29T19:36:12.450Z,20.33
2022-08-29T19:39:00.914Z,20.36
2022-08-29T19:41:54.657Z,20.36
2022-08-29T19:44:44.172Z,20.38
2022-08-29T19:47:33.355Z,20.45
2022-08-29T19:50:24.907Z,20.47
2022-08-29T19:53:16.985Z,20.52
2022-08-29T19:56:14.737Z,20.48
2022-08-29T19:59:03.294Z,20.41
2022-08-29T20:01:52.114Z,20.63
2022-08-29T20:04:40.513Z,20.72
2022-08-29T20:07:30.533Z,20.79
2022-08-29T20:10:22.911Z,20.66
2022-08-29T20:13:11.245Z,20.64
2022-08-29T20:16:00.610Z,20.70
2022-08-29T20:18:49.380Z,20.72
2022-08-29T20:21:40.069Z,20.59
2022-08-29T20:24:30.573Z,20.47
2022-08-29T20:27:18.934Z,20.53
2022-08-29T20:30:10.028Z,20.69
2022-08-29T20:32:58.604Z,20.80
2022-08-29T20:36:05.423Z,20.60
2022-08-29T20:38:54.373Z,20.74
2022-08-29T20:41:49.184Z,20.69
2022-08-29T20:44:41.853Z,20.47
2022-08-29T20:47:30.673Z,20.40
2022-08-29T20:50:19.091Z,19.88
2022-08-29T20:53:08.468Z,19.68
2022-08-29T20:56:01.290Z,19.41
2022-08-29T20:58:51.067Z,19.61
2022-08-29T21:01:40.453Z,19.87
2022-08-29T21:04:46.590Z,19.91
2022-08-29T21:07:37.779Z,19.85
2022-08-29T21:10:26.250Z,19.20
2022-08-29T21:13:15.266Z,19.17
2022-08-29T21:16:07.448Z,19.41
2022-08-29T21:18:56.346Z,19.33
2022-08-29T21:21:44.737Z,19.38
2022-08-29T21:24:35.882Z,19.50
2022-08-29T21:27:24.551Z,19.48
2022-08-29T21:30:14.515Z,19.33
2022-08-29T21:33:04.814Z,19.43
2022-08-29T21:35:53.167Z,19.60
2022-08-29T21:38:41.600Z,19.60
2022-08-29T21:41:31.561Z,19.61
2022-08-29T21:44:20.217Z,19.06
2022-08-29T21:47:08.712Z,19.32
2022-08-29T21:49:58.569Z,19.13
2022-08-29T21:52:48.419Z,18.82
2022-08-29T21:55:36.712Z,18.86
2022-08-29T21:58:25.120Z,18.52
2022-08-29T22:01:14.096Z,18.56
2022-08-29T22:04:03.493Z,18.21
2022-08-29T22:06:54.164Z,18.23
2022-08-29T22:09:42.501Z,18.64
2022-08-29T22:12:31.464Z,17.98
2022-08-29T22:15:37.641Z,17.44
2022-08-29T22:18:26.180Z,17.50
2022-08-29T22:21:15.559Z,17.14
2022-08-29T22:24:06.878Z,16.99
2022-08-29T22:26:55.266Z,16.77
2022-08-29T22:29:43.862Z,16.55
2022-08-29T22:32:32.348Z,16.49
2022-08-29T22:35:24.756Z,16.24
2022-08-29T22:38:13.212Z,16.62
2022-08-29T22:41:03.014Z,16.46
2022-08-29T22:44:16.619Z,16.40
2022-08-29T22:47:01.303Z,16.42
2022-08-29T22:49:50.721Z,16.36
2022-08-29T22:52:39.099Z,16.27
2022-08-29T22:58:16.170Z,16.32
2022-08-29T23:01:07.140Z,16.26
2022-08-29T23:03:56.899Z,16.45
2022-08-29T23:06:45.525Z,16.32
2022-08-29T23:09:35.061Z,16.35
2022-08-29T23:12:23.924Z,16.13
2022-08-29T23:15:17.330Z,16.28
2022-08-29T23:18:05.675Z,15.96
2022-08-29T23:20:54.372Z,16.03
2022-08-29T23:23:45.314Z,16.19
2022-08-29T23:26:34.588Z,16.05
2022-08-29T23:29:24.046Z,16.04
2022-08-29T23:32:13.680Z,16.16
2022-08-29T23:35:02.065Z,16.06
2022-08-29T23:37:50.386Z,16.65
2022-08-29T23:40:38.780Z,16.78
2022-08-29T23:43:27.938Z,16.51
2022-08-29T23:46:19.268Z,16.47
2022-08-29T23:49:09.054Z,16.74
2022-08-29T23:51:57.683Z,16.78
2022-08-29T23:54:47.868Z,16.61
2022-08-29T23:57:36.380Z,16.38
